Time;durP1;ratioP1;P1;durP2;ratioP2;P2;SDS_P1;SDS_P2;PMS_P1;PMS_P2;Temp;Humidity;BMP_temperature;BMP_pressure;BME280_temperature;BME280_humidity;BME280_pressure;Samples;Min_cycle;Max_cycle;Signal;HPM_P1;HPM_P2
2021/05/14 00:02:14;;;;;;;;;;;8.80;99.90;;;;;;8360786;28;20004;-67
2021/05/14 00:06:15;;;;;;;;;;;8.80;99.90;;;;;;8359958;28;19932;-68
2021/05/14 00:10:17;;;;;;;;;;;8.70;99.90;;;;;;8360966;28;19913;-68
2021/05/14 00:14:17;;;;;;;;;;;8.60;99.90;;;;;;8360328;28;19912;-68
2021/05/14 00:18:18;;;;;;;;;;;8.60;99.90;;;;;;8342798;28;19951;-68
2021/05/14 00:22:18;;;;;;;;;;;8.50;99.90;;;;;;8360183;28;19924;-67
2021/05/14 00:26:19;;;;;;;;;;;8.40;99.90;;;;;;8360152;28;20458;-68
2021/05/14 00:30:20;;;;;;;;;;;8.40;99.90;;;;;;8360314;28;19954;-67
2021/05/14 00:34:20;;;;;;;;;;;8.30;99.90;;;;;;8359526;28;20011;-68
2021/05/14 00:38:21;;;;;;;;;;;8.00;99.90;;;;;;8360082;28;19916;-68
2021/05/14 00:42:21;;;;;;;;;;;7.90;99.90;;;;;;8359661;28;20333;-68
2021/05/14 00:46:23;;;;;;;;;;;7.80;99.90;;;;;;8359715;28;19912;-68
2021/05/14 00:50:23;;;;;;;;;;;7.70;99.90;;;;;;8359713;28;19962;-68
2021/05/14 00:54:24;;;;;;;;;;;7.50;99.90;;;;;;8358902;28;19921;-68
2021/05/14 00:58:25;;;;;;;;;;;7.30;99.90;;;;;;8359567;28;20367;-68
2021/05/14 01:02:25;;;;;;;;;;;7.20;99.90;;;;;;8359049;28;19912;-68
2021/05/14 01:06:26;;;;;;;;;;;7.20;99.90;;;;;;8358504;28;19928;-68
2021/05/14 01:10:26;;;;;;;;;;;7.20;99.90;;;;;;8359413;28;20406;-68
2021/05/14 01:14:26;;;;;;;;;;;6.90;99.90;;;;;;8358685;28;20386;-68
2021/05/14 01:18:27;;;;;;;;;;;6.80;99.90;;;;;;8359517;28;19999;-68
2021/05/14 01:22:28;;;;;;;;;;;6.70;99.90;;;;;;8359160;28;19925;-68
2021/05/14 01:26:29;;;;;;;;;;;6.60;99.90;;;;;;8359161;28;19971;-68
2021/05/14 01:30:29;;;;;;;;;;;6.60;99.90;;;;;;8359519;28;20403;-68
2021/05/14 01:34:30;;;;;;;;;;;6.50;99.90;;;;;;8358753;28;19920;-68
2021/05/14 01:38:31;;;;;;;;;;;6.40;99.90;;;;;;8358970;28;20003;-68
2021/05/14 01:42:31;;;;;;;;;;;6.40;99.90;;;;;;8358768;28;20375;-68
2021/05/14 01:46:32;;;;;;;;;;;6.40;99.90;;;;;;8341160;28;20283;-67
2021/05/14 01:50:33;;;;;;;;;;;6.20;99.90;;;;;;8359132;28;20268;-67
2021/05/14 01:54:33;;;;;;;;;;;6.20;99.90;;;;;;8358600;28;19920;-67
2021/05/14 01:58:34;;;;;;;;;;;6.10;99.90;;;;;;8358844;28;20367;-68
2021/05/14 02:02:34;;;;;;;;;;;6.00;99.90;;;;;;8358670;28;19916;-67
2021/05/14 02:06:35;;;;;;;;;;;6.20;99.90;;;;;;8360495;28;19923;-68
2021/05/14 02:10:35;;;;;;;;;;;6.20;99.90;;;;;;8364956;28;19920;-68
2021/05/14 02:14:36;;;;;;;;;;;6.40;99.90;;;;;;8364559;28;20495;-67
2021/05/14 02:18:37;;;;;;;;;;;6.70;99.90;;;;;;8364570;28;19916;-67
2021/05/14 02:22:38;;;;;;;;;;;6.80;99.90;;;;;;8346234;28;19909;-67
2021/05/14 02:26:38;;;;;;;;;;;6.90;99.90;;;;;;8364317;28;19909;-68
2021/05/14 02:30:39;;;;;;;;;;;6.90;99.90;;;;;;8346568;28;19913;-67
2021/05/14 02:34:39;;;;;;;;;;;6.80;99.90;;;;;;8363611;28;20007;-67
2021/05/14 02:38:40;;;;;;;;;;;6.70;99.90;;;;;;8361380;28;20009;-68
2021/05/14 02:42:40;;;;;;;;;;;6.60;99.90;;;;;;8363003;28;19908;-68
2021/05/14 02:46:42;;;;;;;;;;;6.90;99.90;;;;;;8363377;28;19952;-67
2021/05/14 02:50:42;;;;;;;;;;;6.80;99.90;;;;;;8363538;28;19916;-68
2021/05/14 02:54:43;;;;;;;;;;;6.80;99.90;;;;;;8363003;28;19916;-67
2021/05/14 02:58:43;;;;;;;;;;;6.70;99.90;;;;;;8363131;28;19916;-68
2021/05/14 03:02:44;;;;;;;;;;;6.70;99.90;;;;;;8344777;28;19999;-67
2021/05/14 03:06:45;;;;;;;;;;;6.90;99.90;;;;;;8362112;28;19920;-67
2021/05/14 03:10:45;;;;;;;;;;;6.80;99.90;;;;;;8362889;28;20011;-68
2021/05/14 03:14:46;;;;;;;;;;;6.80;99.90;;;;;;8362379;28;20290;-68
2021/05/14 03:18:46;;;;;;;;;;;6.60;99.90;;;;;;8361767;28;20428;-68
2021/05/14 03:22:47;;;;;;;;;;;6.60;99.90;;;;;;8362045;28;19908;-67
2021/05/14 03:26:52;;;;;;;;;;;6.50;99.90;;;;;;8361609;28;19913;-68
2021/05/14 03:30:52;;;;;;;;;;;6.40;99.90;;;;;;8332690;28;19928;-67
2021/05/14 03:34:53;;;;;;;;;;;6.10;99.90;;;;;;8354770;28;19921;-67
2021/05/14 03:38:55;;;;;;;;;;;6.10;99.90;;;;;;8360609;28;19913;-67
2021/05/14 03:42:56;;;;;;;;;;;6.10;99.90;;;;;;8344300;28;19916;-68
2021/05/14 03:46:57;;;;;;;;;;;5.90;99.90;;;;;;8344141;28;19916;-67
2021/05/14 03:50:57;;;;;;;;;;;5.70;99.90;;;;;;8347443;28;19908;-67
2021/05/14 03:54:58;;;;;;;;;;;5.60;99.90;;;;;;8358835;28;19924;-67
2021/05/14 03:59:00;;;;;;;;;;;5.60;99.90;;;;;;8344593;28;19913;-67
2021/05/14 04:03:00;;;;;;;;;;;5.80;99.90;;;;;;8357641;28;19916;-67
2021/05/14 04:07:04;;;;;;;;;;;5.90;99.90;;;;;;8360381;28;19917;-67
2021/05/14 04:11:49;;;;;;;;;;;5.60;99.90;;;;;;8360555;28;20283;-68
2021/05/14 04:15:25;;;;;;;;;;;5.50;99.90;;;;;;8358303;28;20386;-68
2021/05/14 04:19:26;;;;;;;;;;;5.50;99.90;;;;;;8359781;28;19909;-68
2021/05/14 04:23:26;;;;;;;;;;;5.50;99.90;;;;;;8340096;28;20494;-67
2021/05/14 04:27:26;;;;;;;;;;;5.70;99.90;;;;;;8358150;28;20011;-67
2021/05/14 04:31:27;;;;;;;;;;;5.70;99.90;;;;;;8358765;28;20256;-67
2021/05/14 04:35:27;;;;;;;;;;;5.80;99.90;;;;;;8359532;28;19913;-68
2021/05/14 04:39:28;;;;;;;;;;;5.90;99.90;;;;;;8359703;28;19916;-68
2021/05/14 04:43:28;;;;;;;;;;;5.90;99.90;;;;;;8359081;28;19920;-67
2021/05/14 04:47:30;;;;;;;;;;;5.80;99.90;;;;;;8338137;28;19992;-67
2021/05/14 04:51:31;;;;;;;;;;;5.90;99.90;;;;;;8348265;28;20311;-67
2021/05/14 04:55:32;;;;;;;;;;;6.30;99.90;;;;;;8335399;28;19917;-67
2021/05/14 04:59:32;;;;;;;;;;;6.60;99.90;;;;;;8355608;28;19913;-67
2021/05/14 05:03:33;;;;;;;;;;;6.80;99.90;;;;;;8355224;28;20008;-67
2021/05/14 05:07:35;;;;;;;;;;;7.20;99.90;;;;;;8358139;28;19921;-67
2021/05/14 05:11:35;;;;;;;;;;;7.60;99.90;;;;;;8355982;28;19912;-68
2021/05/14 05:15:36;;;;;;;;;;;8.00;99.90;;;;;;8356874;28;19927;-66
2021/05/14 05:19:36;;;;;;;;;;;8.40;99.90;;;;;;8339631;28;19917;-66
2021/05/14 05:23:37;;;;;;;;;;;8.60;99.90;;;;;;8358245;28;19962;-66
2021/05/14 05:27:37;;;;;;;;;;;8.80;99.90;;;;;;8340334;28;19959;-66
2021/05/14 05:31:38;;;;;;;;;;;9.30;99.90;;;;;;8357890;28;20398;-66
2021/05/14 05:35:38;;;;;;;;;;;9.50;99.90;;;;;;8339642;28;19920;-67
2021/05/14 05:39:39;;;;;;;;;;;9.90;99.90;;;;;;8346379;28;20363;-66
2021/05/14 05:43:39;;;;;;;;;;;10.20;99.90;;;;;;8352050;28;19958;-66
2021/05/14 05:47:40;;;;;;;;;;;10.50;99.90;;;;;;8362460;28;20000;-66
2021/05/14 05:51:40;;;;;;;;;;;10.90;99.90;;;;;;8332249;28;19909;-66
2021/05/14 05:55:41;;;;;;;;;;;11.10;99.90;;;;;;8358203;28;20457;-66
2021/05/14 05:59:42;;;;;;;;;;;11.40;99.90;;;;;;8334770;28;19913;-66
2021/05/14 06:03:42;;;;;;;;;;;11.40;99.90;;;;;;8322521;28;19974;-66
2021/05/14 06:07:43;;;;;;;;;;;11.30;99.90;;;;;;8363665;28;19909;-66
2021/05/14 06:11:43;;;;;;;;;;;11.30;99.90;;;;;;8352710;28;19921;-66
2021/05/14 06:15:44;;;;;;;;;;;11.30;99.90;;;;;;8340463;28;19998;-66
2021/05/14 06:19:56;;;;;;;;;;;11.40;99.90;;;;;;8335299;28;19920;-66
2021/05/14 06:23:57;;;;;;;;;;;11.60;99.90;;;;;;8340939;28;20380;-66
2021/05/14 06:27:59;;;;;;;;;;;11.60;99.90;;;;;;8325842;28;19921;-66
2021/05/14 06:31:59;;;;;;;;;;;11.80;99.90;;;;;;8343469;28;19919;-66
2021/05/14 06:36:01;;;;;;;;;;;11.90;99.90;;;;;;8361758;28;20000;-66
2021/05/14 06:40:02;;;;;;;;;;;12.00;99.90;;;;;;8338653;28;19935;-66
2021/05/14 06:44:03;;;;;;;;;;;12.10;99.90;;;;;;8348976;28;19909;-66
2021/05/14 06:48:04;;;;;;;;;;;12.40;99.90;;;;;;8362942;28;19990;-66
2021/05/14 06:52:05;;;;;;;;;;;12.50;99.90;;;;;;8349514;28;19967;-66
2021/05/14 06:56:06;;;;;;;;;;;12.70;99.90;;;;;;8338557;28;19920;-66
2021/05/14 07:00:07;;;;;;;;;;;12.60;99.90;;;;;;8361168;28;19923;-66
2021/05/14 07:04:08;;;;;;;;;;;12.70;99.90;;;;;;8360667;28;20407;-66
2021/05/14 07:08:08;;;;;;;;;;;12.80;99.90;;;;;;8344920;28;19917;-66
2021/05/14 07:12:09;;;;;;;;;;;12.80;99.90;;;;;;8334241;28;19917;-66
2021/05/14 07:16:09;;;;;;;;;;;12.80;99.90;;;;;;8345143;28;19916;-67
2021/05/14 07:20:10;;;;;;;;;;;12.90;99.90;;;;;;8341383;28;19914;-66
2021/05/14 07:24:11;;;;;;;;;;;13.20;99.90;;;;;;8330931;28;20010;-66
2021/05/14 07:28:11;;;;;;;;;;;13.40;99.90;;;;;;8328988;28;19916;-66
2021/05/14 07:32:12;;;;;;;;;;;13.30;99.90;;;;;;8354303;28;20011;-66
2021/05/14 07:36:12;;;;;;;;;;;13.30;99.90;;;;;;8348931;28;20296;-66
2021/05/14 07:40:13;;;;;;;;;;;12.80;99.90;;;;;;8347438;28;19967;-66
2021/05/14 07:44:14;;;;;;;;;;;12.30;99.90;;;;;;8338938;28;19948;-65
2021/05/14 07:48:20;;;;;;;;;;;12.40;99.90;;;;;;8358890;28;19920;-63
2021/05/14 07:52:21;;;;;;;;;;;12.80;99.90;;;;;;8346612;28;19913;-64
2021/05/14 07:56:21;;;;;;;;;;;12.90;99.90;;;;;;8343502;28;20295;-64
2021/05/14 08:00:22;;;;;;;;;;;13.10;99.90;;;;;;8338755;28;19939;-64
2021/05/14 08:04:22;;;;;;;;;;;13.40;99.90;;;;;;8342758;28;19917;-64
2021/05/14 08:08:24;;;;;;;;;;;13.30;99.90;;;;;;8355296;28;19912;-64
2021/05/14 08:12:25;;;;;;;;;;;13.60;99.90;;;;;;8351151;28;20445;-64
2021/05/14 08:16:25;;;;;;;;;;;13.60;99.90;;;;;;8332321;28;19916;-64
2021/05/14 08:20:26;;;;;;;;;;;13.60;99.90;;;;;;8349994;28;19917;-64
2021/05/14 08:24:27;;;;;;;;;;;13.50;99.90;;;;;;8337210;28;19949;-64
2021/05/14 08:28:27;;;;;;;;;;;13.20;99.90;;;;;;8335455;28;20397;-65
2021/05/14 08:32:28;;;;;;;;;;;13.30;99.90;;;;;;8338345;28;19914;-64
2021/05/14 08:36:28;;;;;;;;;;;14.00;99.90;;;;;;8343417;28;19917;-65
2021/05/14 08:40:29;;;;;;;;;;;14.50;99.90;;;;;;8342060;28;19913;-64
2021/05/14 08:44:30;;;;;;;;;;;14.20;99.90;;;;;;8350928;28;19913;-64
2021/05/14 08:48:31;;;;;;;;;;;14.50;99.90;;;;;;8338723;28;19952;-65
2021/05/14 08:52:35;;;;;;;;;;;14.90;99.90;;;;;;8347138;28;20363;-65
2021/05/14 08:56:36;;;;;;;;;;;15.40;99.90;;;;;;8348166;28;19917;-65
2021/05/14 09:00:38;;;;;;;;;;;15.60;99.90;;;;;;8332762;28;19917;-64
2021/05/14 09:04:39;;;;;;;;;;;15.60;99.90;;;;;;8345344;28;19956;-64
2021/05/14 09:08:39;;;;;;;;;;;15.30;99.90;;;;;;8332933;28;20295;-64
2021/05/14 09:12:41;;;;;;;;;;;14.80;99.90;;;;;;8351259;28;20011;-64
2021/05/14 09:16:44;;;;;;;;;;;14.50;99.90;;;;;;8346824;28;19932;-65
2021/05/14 09:20:47;;;;;;;;;;;14.60;99.90;;;;;;8354131;28;20429;-64
2021/05/14 09:24:49;;;;;;;;;;;15.30;99.90;;;;;;8354141;28;19919;-64
2021/05/14 09:28:52;;;;;;;;;;;15.60;99.90;;;;;;8339706;28;19921;-65
2021/05/14 09:32:53;;;;;;;;;;;16.40;99.90;;;;;;8332598;28;19964;-65
2021/05/14 09:36:55;;;;;;;;;;;16.20;99.90;;;;;;8340702;28;19913;-65
2021/05/14 09:40:59;;;;;;;;;;;15.40;99.90;;;;;;8343037;28;19920;-65
2021/05/14 09:45:13;;;;;;;;;;;15.10;99.90;;;;;;8341364;28;19924;-65
2021/05/14 09:49:17;;;;;;;;;;;15.00;99.90;;;;;;8340904;28;19909;-65
2021/05/14 09:53:18;;;;;;;;;;;15.20;99.90;;;;;;8342255;28;19917;-64
2021/05/14 10:01:20;;;;;;;;;;;15.20;99.90;;;;;;8348241;28;19917;-65
2021/05/14 10:05:20;;;;;;;;;;;14.90;99.90;;;;;;8354923;28;19924;-65
2021/05/14 10:09:21;;;;;;;;;;;15.00;99.90;;;;;;8357657;28;19923;-65
2021/05/14 10:13:22;;;;;;;;;;;15.50;99.90;;;;;;8357550;28;19920;-64
2021/05/14 10:17:22;;;;;;;;;;;15.90;99.90;;;;;;8357950;28;19913;-65
2021/05/14 10:21:23;;;;;;;;;;;16.60;99.90;;;;;;8357621;28;20714;-65
2021/05/14 10:25:44;;;;;;;;;;;17.60;99.90;;;;;;8355897;28;19913;-65
2021/05/14 10:29:45;;;;;;;;;;;17.80;99.90;;;;;;8362168;28;19965;-65
2021/05/14 10:33:50;;;;;;;;;;;16.50;99.90;;;;;;8361640;28;19917;-65
2021/05/14 10:37:54;;;;;;;;;;;15.70;99.90;;;;;;8338320;28;19925;-65
2021/05/14 10:41:57;;;;;;;;;;;15.40;99.90;;;;;;8358826;28;20349;-65
2021/05/14 10:46:03;;;;;;;;;;;15.50;99.90;;;;;;8362726;28;19924;-65
2021/05/14 10:50:10;;;;;;;;;;;15.80;99.90;;;;;;8362022;28;20414;-66
2021/05/14 10:54:29;;;;;;;;;;;16.60;99.90;;;;;;8361666;28;19913;-65
2021/05/14 10:58:48;;;;;;;;;;;17.60;99.90;;;;;;8359198;28;20341;-65
2021/05/14 11:03:07;;;;;;;;;;;17.50;99.90;;;;;;8339845;28;19967;-65
2021/05/14 11:07:28;;;;;;;;;;;17.70;97.70;;;;;;8358838;28;19917;-65
2021/05/14 11:11:28;;;;;;;;;;;16.90;99.60;;;;;;8359414;28;20013;-65
2021/05/14 11:15:30;;;;;;;;;;;17.00;99.90;;;;;;8342256;28;20326;-66
2021/05/14 11:19:30;;;;;;;;;;;17.40;99.90;;;;;;8358913;28;19916;-66
2021/05/14 11:23:32;;;;;;;;;;;18.20;97.80;;;;;;8359406;28;19948;-65
2021/05/14 11:27:34;;;;;;;;;;;18.50;97.30;;;;;;8358966;28;20423;-65
2021/05/14 11:31:34;;;;;;;;;;;18.50;92.70;;;;;;8361317;28;20507;-66
2021/05/14 11:35:37;;;;;;;;;;;20.00;89.10;;;;;;8359759;28;19939;-66
2021/05/14 11:39:37;;;;;;;;;;;23.90;79.60;;;;;;8351734;28;19917;-66
2021/05/14 11:43:37;;;;;;;;;;;26.10;60.10;;;;;;8328024;28;19909;-66
2021/05/14 11:47:43;;;;;;;;;;;24.50;53.00;;;;;;8339593;28;19916;-66
2021/05/14 11:51:45;;;;;;;;;;;21.40;59.60;;;;;;8357293;28;20387;-65
2021/05/14 11:55:46;;;;;;;;;;;20.70;58.80;;;;;;8359938;28;19955;-65
2021/05/14 11:59:47;;;;;;;;;;;22.70;55.90;;;;;;8359647;28;19912;-66
2021/05/14 12:03:55;;;;;;;;;;;23.20;56.50;;;;;;8359704;28;20402;-65
2021/05/14 12:08:14;;;;;;;;;;;24.30;53.90;;;;;;8360129;28;19944;-66
2021/05/14 12:12:18;;;;;;;;;;;23.60;57.10;;;;;;8359541;28;20302;-65
2021/05/14 12:16:19;;;;;;;;;;;23.00;54.60;;;;;;8359667;28;19920;-65
2021/05/14 12:20:25;;;;;;;;;;;22.10;56.50;;;;;;8359975;28;19935;-65
2021/05/14 12:24:26;;;;;;;;;;;20.20;61.30;;;;;;8358942;28;19909;-65
2021/05/14 12:28:32;;;;;;;;;;;20.70;60.90;;;;;;8359986;28;20007;-65
2021/05/14 12:32:33;;;;;;;;;;;20.90;54.30;;;;;;8357024;28;19949;-65
2021/05/14 12:36:34;;;;;;;;;;;21.40;56.90;;;;;;8340554;28;19958;-66
2021/05/14 12:40:37;;;;;;;;;;;21.90;52.40;;;;;;8354575;28;19913;-65
2021/05/14 12:44:38;;;;;;;;;;;22.60;52.80;;;;;;8358450;28;19939;-66
2021/05/14 12:48:38;;;;;;;;;;;23.60;50.80;;;;;;8356843;28;19988;-65
2021/05/14 12:52:46;;;;;;;;;;;21.90;50.40;;;;;;8357267;28;19909;-65
2021/05/14 12:56:46;;;;;;;;;;;20.40;55.90;;;;;;8357407;28;19917;-65
2021/05/14 13:00:47;;;;;;;;;;;20.10;60.30;;;;;;8357532;28;19956;-65
2021/05/14 13:04:54;;;;;;;;;;;19.60;63.80;;;;;;8356928;28;19916;-65
2021/05/14 13:09:03;;;;;;;;;;;18.40;70.10;;;;;;8356420;28;19908;-65
2021/05/14 13:13:05;;;;;;;;;;;18.50;67.30;;;;;;8339595;28;19920;-66
2021/05/14 13:17:05;;;;;;;;;;;18.10;66.50;;;;;;8358067;28;19912;-65
2021/05/14 13:21:06;;;;;;;;;;;20.80;64.10;;;;;;8357959;28;19940;-65
2021/05/14 13:25:07;;;;;;;;;;;26.20;49.90;;;;;;8355756;28;19924;-65
2021/05/14 13:29:07;;;;;;;;;;;25.70;46.20;;;;;;8341453;28;20395;-66
2021/05/14 13:33:08;;;;;;;;;;;27.10;48.20;;;;;;8357632;28;19999;-65
2021/05/14 13:37:08;;;;;;;;;;;28.40;45.50;;;;;;8351931;28;20409;-65
2021/05/14 13:41:09;;;;;;;;;;;25.90;46.70;;;;;;8334952;28;19966;-65
2021/05/14 13:45:10;;;;;;;;;;;23.40;49.10;;;;;;8356108;28;19919;-66
2021/05/14 13:49:10;;;;;;;;;;;27.80;46.90;;;;;;8355397;28;19931;-65
2021/05/14 13:53:11;;;;;;;;;;;26.70;43.90;;;;;;8356417;28;20008;-66
2021/05/14 13:57:11;;;;;;;;;;;25.80;46.00;;;;;;8356374;28;20011;-63
2021/05/14 14:01:13;;;;;;;;;;;28.40;40.70;;;;;;8359165;28;19915;-63
2021/05/14 14:05:13;;;;;;;;;;;25.10;43.80;;;;;;8344948;28;20015;-65
2021/05/14 14:09:14;;;;;;;;;;;21.00;54.30;;;;;;8363934;28;20303;-66
2021/05/14 14:13:14;;;;;;;;;;;20.70;55.70;;;;;;8357854;28;19914;-65
2021/05/14 14:17:15;;;;;;;;;;;23.80;50.90;;;;;;8363446;28;19919;-65
2021/05/14 14:21:15;;;;;;;;;;;22.10;50.80;;;;;;8332689;28;20405;-65
2021/05/14 14:25:16;;;;;;;;;;;21.50;55.00;;;;;;8348651;28;20452;-66
2021/05/14 14:29:16;;;;;;;;;;;25.30;48.40;;;;;;8353821;28;19916;-65
2021/05/14 14:33:17;;;;;;;;;;;26.90;44.00;;;;;;8359270;28;19928;-65
2021/05/14 14:37:17;;;;;;;;;;;23.30;48.00;;;;;;8355453;28;19917;-65
2021/05/14 14:41:18;;;;;;;;;;;21.60;52.00;;;;;;8344820;28;19949;-65
2021/05/14 14:45:19;;;;;;;;;;;23.70;52.70;;;;;;8360618;28;20350;-66
2021/05/14 14:49:19;;;;;;;;;;;27.20;47.20;;;;;;8360178;28;19909;-65
2021/05/14 14:53:20;;;;;;;;;;;25.30;45.80;;;;;;8359449;28;19931;-65
2021/05/14 14:57:20;;;;;;;;;;;24.40;48.70;;;;;;8352700;28;19948;-66
2021/05/14 15:01:21;;;;;;;;;;;24.20;48.10;;;;;;8353204;28;19924;-65
2021/05/14 15:05:21;;;;;;;;;;;22.80;49.30;;;;;;8345672;28;21209;-65
2021/05/14 15:09:22;;;;;;;;;;;20.90;54.60;;;;;;8328390;28;19917;-65
2021/05/14 15:13:22;;;;;;;;;;;19.50;55.70;;;;;;8346449;28;19919;-65
2021/05/14 15:17:26;;;;;;;;;;;18.40;59.70;;;;;;8345758;28;19928;-65
2021/05/14 15:21:27;;;;;;;;;;;18.30;64.80;;;;;;8345493;28;19917;-65
2021/05/14 15:25:27;;;;;;;;;;;18.50;64.10;;;;;;8347563;28;19917;-65
2021/05/14 15:29:28;;;;;;;;;;;18.30;63.30;;;;;;8350301;28;19917;-65
2021/05/14 15:33:28;;;;;;;;;;;18.60;66.60;;;;;;8352495;28;19913;-66
2021/05/14 15:37:29;;;;;;;;;;;20.20;61.50;;;;;;8360015;28;19917;-65
2021/05/14 15:41:29;;;;;;;;;;;24.60;51.90;;;;;;8359100;28;20086;-66
2021/05/14 15:45:32;;;;;;;;;;;24.10;50.00;;;;;;8357398;28;19920;-65
2021/05/14 15:49:33;;;;;;;;;;;23.00;49.70;;;;;;8357709;28;19908;-65
2021/05/14 15:53:34;;;;;;;;;;;22.00;51.70;;;;;;8360076;28;19996;-65
2021/05/14 15:57:34;;;;;;;;;;;21.30;55.50;;;;;;8360942;28;19920;-66
2021/05/14 16:01:34;;;;;;;;;;;25.50;50.20;;;;;;8361222;28;19909;-63
2021/05/14 16:05:35;;;;;;;;;;;28.30;44.50;;;;;;8359707;28;19938;-63
2021/05/14 16:09:35;;;;;;;;;;;27.60;41.80;;;;;;8360661;28;19931;-63
2021/05/14 16:13:36;;;;;;;;;;;25.50;45.70;;;;;;8360315;28;19909;-65
2021/05/14 16:17:41;;;;;;;;;;;23.60;49.30;;;;;;8360034;28;19917;-65
2021/05/14 16:21:41;;;;;;;;;;;22.30;52.50;;;;;;8360693;28;19971;-65
2021/05/14 16:25:43;;;;;;;;;;;24.10;50.40;;;;;;8358830;28;19909;-66
2021/05/14 16:29:46;;;;;;;;;;;28.50;40.80;;;;;;8359810;28;19909;-64
2021/05/14 16:33:47;;;;;;;;;;;30.80;35.40;;;;;;8359553;28;19913;-64
2021/05/14 16:37:48;;;;;;;;;;;31.00;34.30;;;;;;8359828;28;20286;-63
2021/05/14 16:41:49;;;;;;;;;;;30.30;35.20;;;;;;8359375;28;20299;-66
2021/05/14 16:45:49;;;;;;;;;;;25.20;40.60;;;;;;8360039;28;20347;-65
2021/05/14 16:49:50;;;;;;;;;;;21.80;50.80;;;;;;8359994;28;20353;-65
2021/05/14 16:53:50;;;;;;;;;;;23.20;49.80;;;;;;8358980;28;20382;-65
2021/05/14 16:57:54;;;;;;;;;;;25.30;47.60;;;;;;8359676;28;20019;-65
2021/05/14 17:01:54;;;;;;;;;;;26.10;46.20;;;;;;8341463;28;19916;-65
2021/05/14 17:06:00;;;;;;;;;;;23.70;49.50;;;;;;8357561;28;19917;-65
2021/05/14 17:10:01;;;;;;;;;;;22.50;53.00;;;;;;8345759;28;19932;-65
2021/05/14 17:14:02;;;;;;;;;;;21.60;54.20;;;;;;8358040;28;19940;-65
2021/05/14 17:18:03;;;;;;;;;;;21.30;57.00;;;;;;8350082;28;20318;-64
2021/05/14 17:22:05;;;;;;;;;;;20.00;58.30;;;;;;8358672;28;19963;-65
2021/05/14 17:26:06;;;;;;;;;;;19.00;60.80;;;;;;8358500;28;19913;-65
2021/05/14 17:30:07;;;;;;;;;;;18.20;66.40;;;;;;8358248;28;20551;-65
2021/05/14 17:34:08;;;;;;;;;;;17.90;64.60;;;;;;8358169;28;19913;-65
2021/05/14 17:38:08;;;;;;;;;;;17.90;68.00;;;;;;8361163;28;19960;-65
2021/05/14 17:42:09;;;;;;;;;;;18.10;67.50;;;;;;8349115;28;19951;-66
2021/05/14 17:46:13;;;;;;;;;;;17.50;70.90;;;;;;8347193;28;19948;-66
2021/05/14 17:50:13;;;;;;;;;;;17.40;72.30;;;;;;8346172;28;20379;-66
2021/05/14 17:54:14;;;;;;;;;;;18.20;68.60;;;;;;8344524;28;19912;-66
2021/05/14 17:58:15;;;;;;;;;;;16.70;71.10;;;;;;8344480;28;19929;-65
2021/05/14 18:02:16;;;;;;;;;;;15.80;76.40;;;;;;8354538;28;19917;-66
2021/05/14 18:06:17;;;;;;;;;;;15.20;79.30;;;;;;8358628;28;20023;-67
2021/05/14 18:10:19;;;;;;;;;;;15.00;82.50;;;;;;8358444;28;20379;-66
2021/05/14 18:14:19;;;;;;;;;;;14.80;82.40;;;;;;8344818;28;19909;-65
2021/05/14 18:18:28;;;;;;;;;;;14.40;85.80;;;;;;8345384;28;19932;-65
2021/05/14 18:22:29;;;;;;;;;;;14.20;86.60;;;;;;8344076;28;19971;-65
2021/05/14 18:26:29;;;;;;;;;;;14.20;89.20;;;;;;8343585;28;19909;-65
2021/05/14 18:30:30;;;;;;;;;;;14.00;91.20;;;;;;8339756;28;19913;-66
2021/05/14 18:34:30;;;;;;;;;;;13.90;95.60;;;;;;8349307;28;19916;-66
2021/05/14 18:38:31;;;;;;;;;;;13.90;99.90;;;;;;8353695;28;19920;-66
2021/05/14 18:42:34;;;;;;;;;;;13.60;99.90;;;;;;8349601;28;19920;-67
2021/05/14 18:46:34;;;;;;;;;;;13.30;99.90;;;;;;8329643;28;19935;-66
2021/05/14 18:50:35;;;;;;;;;;;13.00;99.90;;;;;;8339470;28;19913;-66
2021/05/14 18:54:36;;;;;;;;;;;12.40;99.90;;;;;;8314933;28;19923;-67
2021/05/14 18:58:37;;;;;;;;;;;12.10;99.90;;;;;;8328551;28;19917;-67
2021/05/14 19:02:38;;;;;;;;;;;12.10;99.90;;;;;;8332949;28;19924;-66
2021/05/14 19:06:39;;;;;;;;;;;12.20;99.90;;;;;;8338292;28;19920;-67
2021/05/14 19:10:39;;;;;;;;;;;12.10;99.90;;;;;;8338493;28;19983;-67
2021/05/14 19:14:40;;;;;;;;;;;12.30;99.90;;;;;;8329688;28;19924;-67
2021/05/14 19:18:40;;;;;;;;;;;12.30;99.90;;;;;;8331673;28;19917;-67
2021/05/14 19:44:38;;;;;;;;;;;11.90;99.90;;;;;;8353417;28;20555;-71
2021/05/14 19:48:39;;;;;;;;;;;11.90;99.90;;;;;;8338637;28;19923;-71
2021/05/14 19:52:39;;;;;;;;;;;11.90;99.90;;;;;;8351120;28;20773;-72
2021/05/14 19:56:40;;;;;;;;;;;11.90;99.90;;;;;;8329650;28;19921;-67
2021/05/14 20:00:41;;;;;;;;;;;12.00;99.90;;;;;;8339143;28;19917;-67
2021/05/14 20:04:42;;;;;;;;;;;12.20;99.90;;;;;;8337570;28;20377;-67
2021/05/14 20:08:42;;;;;;;;;;;12.40;99.90;;;;;;8330026;28;19971;-67
2021/05/14 20:12:43;;;;;;;;;;;12.30;99.90;;;;;;8339889;28;20382;-67
2021/05/14 20:16:44;;;;;;;;;;;12.30;99.90;;;;;;8341912;28;19923;-67
2021/05/14 20:20:45;;;;;;;;;;;12.20;99.90;;;;;;8341611;28;19967;-67
2021/05/14 20:24:46;;;;;;;;;;;12.20;99.90;;;;;;8338900;28;20418;-67
2021/05/14 20:28:47;;;;;;;;;;;12.20;99.90;;;;;;8338678;28;20316;-67
2021/05/14 20:32:48;;;;;;;;;;;12.10;99.90;;;;;;8321653;28;19929;-67
2021/05/14 20:36:55;;;;;;;;;;;12.10;99.90;;;;;;8354982;28;19927;-67
2021/05/14 20:40:55;;;;;;;;;;;12.00;99.90;;;;;;8351861;28;19916;-67
2021/05/14 20:44:56;;;;;;;;;;;12.00;99.90;;;;;;8355567;28;20583;-67
2021/05/14 20:48:56;;;;;;;;;;;12.00;99.90;;;;;;8356089;28;19913;-67
2021/05/14 20:52:57;;;;;;;;;;;12.30;99.90;;;;;;8355857;28;19916;-67
2021/05/14 20:56:57;;;;;;;;;;;12.40;99.90;;;;;;8355895;28;19964;-67
2021/05/14 21:00:58;;;;;;;;;;;12.30;99.90;;;;;;8355524;28;19944;-67
2021/05/14 21:04:58;;;;;;;;;;;12.30;99.90;;;;;;8353542;28;19920;-67
2021/05/14 21:08:59;;;;;;;;;;;12.20;99.90;;;;;;8356575;28;19913;-67
2021/05/14 21:12:59;;;;;;;;;;;12.20;99.90;;;;;;8355759;28;19913;-67
2021/05/14 21:17:00;;;;;;;;;;;11.90;99.90;;;;;;8355008;28;20345;-67
2021/05/14 21:21:01;;;;;;;;;;;12.00;99.90;;;;;;8346463;28;20307;-67
2021/05/14 21:25:02;;;;;;;;;;;12.00;99.90;;;;;;8325854;28;19928;-67
2021/05/14 21:29:02;;;;;;;;;;;11.90;99.90;;;;;;8308204;28;19989;-67
2021/05/14 21:33:04;;;;;;;;;;;11.70;99.90;;;;;;8330519;28;19909;-67
2021/05/14 21:37:04;;;;;;;;;;;11.70;99.90;;;;;;8358603;28;19913;-67
2021/05/14 21:41:05;;;;;;;;;;;11.70;99.90;;;;;;8358779;28;19909;-67
2021/05/14 21:45:05;;;;;;;;;;;11.70;99.90;;;;;;8358302;28;19944;-67
2021/05/14 21:49:06;;;;;;;;;;;11.70;99.90;;;;;;8358707;28;19908;-66
2021/05/14 21:53:06;;;;;;;;;;;11.70;99.90;;;;;;8358402;28;19909;-67
2021/05/14 21:57:09;;;;;;;;;;;11.50;99.90;;;;;;8340728;28;19912;-67
2021/05/14 22:01:10;;;;;;;;;;;11.40;99.90;;;;;;8358542;28;19913;-66
2021/05/14 22:05:11;;;;;;;;;;;11.40;99.90;;;;;;8357981;28;19978;-67
2021/05/14 22:09:11;;;;;;;;;;;11.40;99.90;;;;;;8358275;28;19999;-66
2021/05/14 22:13:12;;;;;;;;;;;11.40;99.90;;;;;;8357988;28;19909;-66
2021/05/14 22:17:13;;;;;;;;;;;11.40;99.90;;;;;;8358271;28;19913;-67
2021/05/14 22:21:14;;;;;;;;;;;11.30;99.90;;;;;;8358876;28;20332;-67
2021/05/14 22:25:14;;;;;;;;;;;11.30;99.90;;;;;;8363772;28;19913;-67
2021/05/14 22:29:16;;;;;;;;;;;11.40;99.90;;;;;;8345994;28;21374;-67
2021/05/14 22:33:17;;;;;;;;;;;11.20;99.90;;;;;;8363928;28;19912;-67
2021/05/14 22:37:19;;;;;;;;;;;11.20;99.90;;;;;;8363787;28;19951;-67
2021/05/14 22:41:19;;;;;;;;;;;11.10;99.90;;;;;;8346598;28;19963;-67
2021/05/14 22:45:19;;;;;;;;;;;11.10;99.90;;;;;;8363856;28;19947;-67
2021/05/14 22:49:20;;;;;;;;;;;11.00;99.90;;;;;;8346330;28;19955;-67
2021/05/14 22:53:20;;;;;;;;;;;11.00;99.90;;;;;;8363478;28;19916;-67
2021/05/14 22:57:21;;;;;;;;;;;11.00;99.90;;;;;;8363425;28;20286;-67
2021/05/14 23:01:21;;;;;;;;;;;10.90;99.90;;;;;;8363474;28;19970;-67
2021/05/14 23:05:22;;;;;;;;;;;10.80;99.90;;;;;;8362775;28;20407;-67
2021/05/14 23:09:23;;;;;;;;;;;10.90;99.90;;;;;;8363056;28;19944;-67
2021/05/14 23:13:25;;;;;;;;;;;10.80;99.90;;;;;;8362798;28;19917;-66
2021/05/14 23:17:25;;;;;;;;;;;10.70;99.90;;;;;;8362898;28;19912;-66
2021/05/14 23:21:26;;;;;;;;;;;10.80;99.90;;;;;;8362953;28;19943;-66
2021/05/14 23:25:26;;;;;;;;;;;10.70;99.90;;;;;;8362270;28;19909;-67
2021/05/14 23:29:27;;;;;;;;;;;10.80;99.90;;;;;;8362713;28;19909;-67
2021/05/14 23:33:27;;;;;;;;;;;10.80;99.90;;;;;;8361680;28;20398;-67
2021/05/14 23:37:28;;;;;;;;;;;10.70;99.90;;;;;;8362521;28;19920;-66
2021/05/14 23:41:28;;;;;;;;;;;10.70;99.90;;;;;;8360849;28;19960;-67
2021/05/14 23:45:28;;;;;;;;;;;10.70;99.90;;;;;;8362043;28;19936;-67
2021/05/14 23:49:29;;;;;;;;;;;10.80;99.90;;;;;;8362196;28;20379;-66
2021/05/14 23:53:29;;;;;;;;;;;10.60;99.90;;;;;;8361695;28;19938;-67
2021/05/14 23:57:30;;;;;;;;;;;10.60;99.90;;;;;;8361971;28;19920;-67
